createdAt,value
2023-02-03T00:04:19.593Z,-21.02
2023-02-03T00:09:22.330Z,-21.04
2023-02-03T00:14:25.211Z,-21.16
2023-02-03T00:19:27.890Z,-21.06
2023-02-03T00:24:30.781Z,-21.09
2023-02-03T00:29:33.687Z,-21.06
2023-02-03T00:34:36.308Z,-21.27
2023-02-03T00:39:39.353Z,-21.17
2023-02-03T00:44:42.075Z,-21.20
2023-02-03T00:49:44.754Z,-21.16
2023-02-03T00:54:47.469Z,-21.37
2023-02-03T00:59:50.124Z,-21.20
2023-02-03T01:04:52.781Z,-21.20
2023-02-03T01:09:55.552Z,-21.11
2023-02-03T01:14:58.254Z,-21.08
2023-02-03T01:20:00.932Z,-21.17
2023-02-03T01:25:05.531Z,-21.13
2023-02-03T01:30:08.709Z,-21.15
2023-02-03T01:35:11.536Z,-21.09
2023-02-03T01:40:14.199Z,-21.07
2023-02-03T01:45:19.983Z,-20.99
2023-02-03T01:50:33.812Z,-20.95
2023-02-03T01:55:41.011Z,-20.90
2023-02-03T02:00:44.368Z,-20.75
2023-02-03T02:06:01.472Z,-20.71
2023-02-03T02:11:04.884Z,-20.66
2023-02-03T02:16:14.977Z,-20.65
2023-02-03T02:21:45.216Z,-20.60
2023-02-03T02:26:57.149Z,-20.64
2023-02-03T02:32:11.935Z,-20.74
2023-02-03T02:37:26.446Z,-20.92
2023-02-03T02:42:39.137Z,-21.01
2023-02-03T02:47:42.011Z,-21.05
2023-02-03T02:52:46.712Z,-21.07
2023-02-03T02:57:50.275Z,-21.07
2023-02-03T03:02:57.874Z,-21.02
2023-02-03T03:08:03.237Z,-20.96
2023-02-03T03:13:09.108Z,-20.86
2023-02-03T03:18:21.535Z,-20.64
2023-02-03T03:23:34.176Z,-20.55
2023-02-03T03:28:52.373Z,-20.45
2023-02-03T03:33:55.157Z,-20.39
2023-02-03T03:39:04.948Z,-20.27
2023-02-03T03:44:11.714Z,-20.13
2023-02-03T03:49:14.861Z,-20.02
2023-02-03T03:54:19.709Z,-19.94
2023-02-03T03:59:23.255Z,-20.11
2023-02-03T04:04:26.509Z,-19.72
2023-02-03T04:09:29.161Z,-19.56
2023-02-03T04:14:38.297Z,-19.36
2023-02-03T04:19:41.136Z,-19.23
2023-02-03T04:24:43.636Z,-18.97
2023-02-03T04:29:47.941Z,-18.73
2023-02-03T04:34:50.622Z,-18.38
2023-02-03T04:39:53.771Z,-17.99
2023-02-03T04:44:56.494Z,-17.65
2023-02-03T04:49:59.243Z,-17.39
2023-02-03T04:55:02.046Z,-17.24
2023-02-03T05:00:06.136Z,-17.08
2023-02-03T05:05:08.892Z,-16.93
2023-02-03T05:10:11.610Z,-16.84
2023-02-03T05:15:15.047Z,-16.83
2023-02-03T05:20:18.058Z,-16.79
2023-02-03T05:25:20.854Z,-16.76
2023-02-03T05:30:23.719Z,-16.71
2023-02-03T05:35:26.417Z,-16.65
2023-02-03T05:40:47.860Z,-16.57
2023-02-03T05:45:50.581Z,-16.41
2023-02-03T05:50:53.492Z,-16.26
2023-02-03T05:55:56.177Z,-16.15
2023-02-03T06:00:58.821Z,-16.11
2023-02-03T06:06:01.680Z,-15.90
2023-02-03T06:11:04.435Z,-15.71
2023-02-03T06:16:07.612Z,-15.57
2023-02-03T06:21:10.317Z,-15.44
2023-02-03T06:26:13.388Z,-15.29
2023-02-03T06:31:16.248Z,-15.12
2023-02-03T06:36:19.046Z,-14.98
2023-02-03T06:41:21.846Z,-14.88
2023-02-03T06:46:28.563Z,-14.67
2023-02-03T06:51:31.409Z,-14.44
2023-02-03T06:56:34.041Z,-14.33
2023-02-03T07:01:37.615Z,-14.30
2023-02-03T07:06:40.398Z,-14.33
2023-02-03T07:11:43.170Z,-14.18
2023-02-03T07:16:45.875Z,-14.08
2023-02-03T07:21:48.694Z,-13.97
2023-02-03T07:26:51.369Z,-13.83
2023-02-03T07:31:54.284Z,-13.60
2023-02-03T07:36:58.121Z,-13.46
2023-02-03T07:42:00.690Z,-13.27
2023-02-03T07:47:04.823Z,-13.10
2023-02-03T07:52:15.076Z,-13.04
2023-02-03T07:57:17.971Z,-12.80
2023-02-03T08:02:20.671Z,-12.71
2023-02-03T08:07:23.406Z,-12.56
2023-02-03T08:12:26.370Z,-12.41
2023-02-03T08:17:29.284Z,-12.22
2023-02-03T08:22:31.920Z,-12.04
2023-02-03T08:27:34.682Z,-11.89
2023-02-03T08:32:37.328Z,-11.67
2023-02-03T08:37:40.091Z,-11.53
2023-02-03T08:42:42.778Z,-11.41
2023-02-03T08:47:45.652Z,-11.30
2023-02-03T08:52:48.361Z,-11.20
2023-02-03T08:57:51.076Z,-11.08
2023-02-03T09:02:53.721Z,-10.98
2023-02-03T09:07:56.406Z,-10.94
2023-02-03T09:12:59.040Z,-10.86
2023-02-03T09:18:01.687Z,-10.75
2023-02-03T09:23:04.449Z,-10.55
2023-02-03T09:28:07.316Z,-10.43
2023-02-03T09:33:10.491Z,-10.39
2023-02-03T09:38:13.297Z,-10.35
2023-02-03T09:43:43.500Z,-10.28
2023-02-03T09:48:50.194Z,-10.22
2023-02-03T09:54:06.806Z,-10.21
2023-02-03T09:59:10.256Z,-10.23
2023-02-03T10:04:31.127Z,-10.23
2023-02-03T10:10:08.178Z,-10.27
2023-02-03T10:15:10.825Z,-10.34
2023-02-03T10:20:22.033Z,-10.48
2023-02-03T10:25:38.216Z,-10.46
2023-02-03T10:30:46.728Z,-10.59
2023-02-03T10:35:53.491Z,-10.67
2023-02-03T10:40:56.639Z,-10.79
2023-02-03T10:46:00.200Z,-10.85
2023-02-03T10:51:03.728Z,-10.94
2023-02-03T10:56:16.256Z,-11.00
2023-02-03T11:01:21.772Z,-11.07
2023-02-03T11:06:25.400Z,-11.19
2023-02-03T11:11:31.721Z,-11.25
2023-02-03T11:16:37.341Z,-11.34
2023-02-03T11:21:44.827Z,-11.47
2023-02-03T11:26:51.863Z,-11.49
2023-02-03T11:32:04.091Z,-11.52
2023-02-03T11:37:42.292Z,-11.49
2023-02-03T11:42:59.267Z,-11.53
2023-02-03T11:48:03.371Z,-11.54
2023-02-03T11:53:08.940Z,-11.56
2023-02-03T11:58:38.827Z,-11.60
2023-02-03T12:04:02.928Z,-11.79
2023-02-03T12:09:38.163Z,-11.65
2023-02-03T12:14:59.611Z,-11.71
2023-02-03T12:20:22.030Z,-11.82
2023-02-03T12:25:49.350Z,-11.79
2023-02-03T12:30:57.392Z,-11.83
2023-02-03T12:36:10.293Z,-11.94
2023-02-03T12:41:16.571Z,-11.96
2023-02-03T12:46:31.865Z,-12.03
2023-02-03T12:51:40.625Z,-12.10
2023-02-03T12:56:44.666Z,-12.15
2023-02-03T13:01:49.646Z,-12.27
2023-02-03T13:07:18.381Z,-12.37
2023-02-03T13:12:27.871Z,-12.45
2023-02-03T13:17:46.668Z,-12.57
2023-02-03T13:22:49.299Z,-12.66
2023-02-03T13:27:58.475Z,-12.72
2023-02-03T13:33:30.914Z,-12.84
2023-02-03T13:39:13.894Z,-13.02
2023-02-03T13:44:20.118Z,-13.02
2023-02-03T13:49:29.212Z,-13.25
2023-02-03T13:54:39.446Z,-13.26
2023-02-03T13:59:43.988Z,-13.29
2023-02-03T14:04:46.754Z,-13.38
2023-02-03T14:10:14.883Z,-13.49
2023-02-03T14:15:32.584Z,-13.53
2023-02-03T14:20:42.661Z,-13.59
2023-02-03T14:26:05.760Z,-13.62
2023-02-03T14:31:16.979Z,-13.65
2023-02-03T14:36:31.967Z,-13.63
2023-02-03T14:41:49.608Z,-13.62
2023-02-03T14:46:53.752Z,-13.60
2023-02-03T14:52:25.638Z,-13.62
2023-02-03T14:57:40.188Z,-13.61
2023-02-03T15:03:10.725Z,-13.58
2023-02-03T15:08:33.554Z,-13.62
2023-02-03T15:13:36.286Z,-13.63
2023-02-03T15:18:41.161Z,-13.61
2023-02-03T15:23:48.510Z,-13.62
2023-02-03T15:28:59.101Z,-13.68
2023-02-03T15:34:14.272Z,-13.72
2023-02-03T15:39:39.142Z,-13.72
2023-02-03T15:44:51.204Z,-13.77
2023-02-03T15:50:02.400Z,-13.83
2023-02-03T15:55:17.945Z,-13.84
2023-02-03T16:00:38.651Z,-13.85
2023-02-03T16:05:42.751Z,-13.89
2023-02-03T16:10:45.494Z,-13.94
2023-02-03T16:16:14.789Z,-13.99
2023-02-03T16:21:29.686Z,-14.01
2023-02-03T16:26:34.001Z,-14.06
2023-02-03T16:32:00.900Z,-14.11
2023-02-03T16:37:39.095Z,-14.09
2023-02-03T16:43:00.684Z,-14.14
2023-02-03T16:48:22.344Z,-14.16
2023-02-03T16:53:32.987Z,-14.18
2023-02-03T16:58:35.766Z,-14.26
2023-02-03T17:03:40.108Z,-14.27
2023-02-03T17:08:43.170Z,-14.38
2023-02-03T17:13:46.997Z,-14.47
2023-02-03T17:18:49.885Z,-14.49
2023-02-03T17:23:52.725Z,-14.54
2023-02-03T17:28:55.598Z,-14.60
2023-02-03T17:33:58.695Z,-14.68
2023-02-03T17:55:02.189Z,-14.71
2023-02-03T18:00:06.153Z,-14.70
2023-02-03T18:05:14.977Z,-14.76
2023-02-03T18:10:17.873Z,-14.82
2023-02-03T18:15:20.745Z,-14.73
2023-02-03T18:20:23.384Z,-14.77
2023-02-03T18:25:25.998Z,-14.67
2023-02-03T18:30:28.970Z,-14.65
2023-02-03T18:35:33.781Z,-14.65
2023-02-03T18:40:39.629Z,-14.58
2023-02-03T18:45:42.340Z,-14.64
2023-02-03T18:50:45.209Z,-14.59
2023-02-03T18:55:47.849Z,-14.58
2023-02-03T19:00:51.011Z,-14.67
2023-02-03T19:05:54.590Z,-14.57
2023-02-03T19:10:57.188Z,-14.56
2023-02-03T19:16:02.111Z,-14.55
2023-02-03T19:21:05.085Z,-14.56
2023-02-03T19:26:08.338Z,-14.56
2023-02-03T19:31:17.924Z,-14.55
2023-02-03T19:36:20.907Z,-14.59
2023-02-03T19:41:25.970Z,-14.58
2023-02-03T19:46:32.906Z,-14.58
2023-02-03T19:51:35.926Z,-14.60
2023-02-03T19:56:39.037Z,-14.61
2023-02-03T20:01:42.751Z,-14.62
2023-02-03T20:06:45.716Z,-14.60
2023-02-03T20:11:48.418Z,-14.54
2023-02-03T20:16:51.482Z,-14.48
2023-02-03T20:21:54.206Z,-14.41
2023-02-03T20:26:56.923Z,-14.37
2023-02-03T20:31:59.617Z,-14.33
2023-02-03T20:37:02.323Z,-14.29
2023-02-03T20:42:18.728Z,-14.27
2023-02-03T20:47:22.916Z,-14.28
2023-02-03T20:52:25.627Z,-14.26
2023-02-03T20:57:28.387Z,-14.26
2023-02-03T21:02:53.915Z,-14.28
2023-02-03T21:07:56.628Z,-14.27
2023-02-03T21:12:59.321Z,-14.32
2023-02-03T21:18:01.914Z,-14.49
2023-02-03T21:23:07.385Z,-14.33
2023-02-03T21:28:22.723Z,-14.58
2023-02-03T21:33:29.467Z,-14.34
2023-02-03T21:38:33.430Z,-14.38
2023-02-03T21:43:36.697Z,-14.43
2023-02-03T21:48:40.388Z,-14.52
2023-02-03T21:53:54.869Z,-14.51
2023-02-03T21:58:59.258Z,-14.55
2023-02-03T22:04:04.181Z,-14.58
2023-02-03T22:09:07.951Z,-14.54
2023-02-03T22:14:10.637Z,-14.57
2023-02-03T22:19:13.770Z,-14.61
2023-02-03T22:24:16.434Z,-14.68
2023-02-03T22:29:19.098Z,-14.61
2023-02-03T22:34:23.391Z,-14.58
2023-02-03T22:39:26.332Z,-14.58
2023-02-03T22:44:28.982Z,-14.51
2023-02-03T22:49:31.641Z,-14.46
2023-02-03T22:54:35.465Z,-14.43
2023-02-03T22:59:38.260Z,-14.38
2023-02-03T23:04:41.050Z,-14.35
2023-02-03T23:09:43.730Z,-14.34
2023-02-03T23:14:46.356Z,-14.25
2023-02-03T23:19:49.298Z,-14.20
2023-02-03T23:24:51.910Z,-14.13
2023-02-03T23:29:54.750Z,-14.08
2023-02-03T23:35:16.101Z,-14.02
2023-02-03T23:40:19.111Z,-13.98
2023-02-03T23:45:21.756Z,-13.94
2023-02-03T23:50:24.510Z,-13.91
2023-02-03T23:55:27.272Z,-13.90
